Time;durP1;ratioP1;P1;durP2;ratioP2;P2;SDS_P1;SDS_P2;PMS_P1;PMS_P2;Temp;Humidity;BMP_temperature;BMP_pressure;BME280_temperature;BME280_humidity;BME280_pressure;Samples;Min_cycle;Max_cycle;Signal;HPM_P1;HPM_P2
2024/03/07 00:00:16;;;;;;;57.93;44.70;;;6.60;99.90;;;;;;4823404;29;20672;-80
2024/03/07 00:02:44;;;;;;;56.93;45.60;;;6.60;99.90;;;;;;4824400;29;20209;-80
2024/03/07 00:05:12;;;;;;;49.43;41.73;;;6.60;99.90;;;;;;4824423;29;20253;-80
2024/03/07 00:07:40;;;;;;;50.83;43.30;;;6.60;99.90;;;;;;4822927;29;20310;-80
2024/03/07 00:10:08;;;;;;;52.33;43.77;;;6.60;99.90;;;;;;4824459;29;20640;-80
2024/03/07 00:12:35;;;;;;;55.70;44.97;;;6.60;99.90;;;;;;4823054;29;20649;-80
2024/03/07 00:15:06;;;;;;;55.50;45.67;;;6.60;99.90;;;;;;4822974;29;20246;-80
2024/03/07 00:17:34;;;;;;;52.67;42.23;;;6.50;99.90;;;;;;4822437;29;20259;-80
2024/03/07 00:20:01;;;;;;;59.57;45.33;;;6.60;99.90;;;;;;4822497;29;20207;-80
2024/03/07 00:22:29;;;;;;;50.93;43.23;;;6.50;99.90;;;;;;4824164;29;20198;-80
2024/03/07 00:24:56;;;;;;;52.87;43.73;;;6.50;99.90;;;;;;4822562;29;20227;-80
2024/03/07 00:27:23;;;;;;;50.37;43.70;;;6.50;99.90;;;;;;4822783;29;20207;-79
2024/03/07 00:29:53;;;;;;;53.73;43.60;;;6.50;99.90;;;;;;4822754;29;20278;-80
2024/03/07 00:32:22;;;;;;;51.63;43.20;;;6.50;99.90;;;;;;4822916;29;20676;-81
2024/03/07 00:34:49;;;;;;;50.20;41.10;;;6.50;99.90;;;;;;4824171;29;20266;-79
2024/03/07 00:37:16;;;;;;;46.83;39.27;;;6.50;99.90;;;;;;4822416;29;20272;-81
2024/03/07 00:39:43;;;;;;;44.20;38.33;;;6.50;99.90;;;;;;4823888;29;20218;-80
2024/03/07 00:42:10;;;;;;;48.63;40.83;;;6.50;99.90;;;;;;4822855;29;20202;-79
2024/03/07 00:44:37;;;;;;;45.27;39.57;;;6.50;99.90;;;;;;4822427;29;20238;-80
2024/03/07 00:47:04;;;;;;;54.73;42.43;;;6.50;99.90;;;;;;4823595;29;20206;-80
2024/03/07 00:49:33;;;;;;;52.90;42.80;;;6.40;99.90;;;;;;4822579;29;20208;-80
2024/03/07 00:52:00;;;;;;;53.73;41.97;;;6.40;99.90;;;;;;4823207;29;20207;-80
2024/03/07 00:54:27;;;;;;;48.83;40.97;;;6.30;99.90;;;;;;4824138;29;20226;-80
2024/03/07 00:56:55;;;;;;;50.77;39.33;;;6.30;99.90;;;;;;4823682;29;20305;-80
2024/03/07 00:59:22;;;;;;;42.30;35.83;;;6.20;99.90;;;;;;4817740;29;20207;-80
2024/03/07 01:01:50;;;;;;;49.47;39.00;;;6.20;99.90;;;;;;4823462;29;20214;-80
2024/03/07 01:04:17;;;;;;;46.87;40.17;;;6.20;99.90;;;;;;4823805;29;20658;-80
2024/03/07 01:06:45;;;;;;;46.80;40.37;;;6.10;99.90;;;;;;4822627;29;20224;-80
2024/03/07 01:09:16;;;;;;;44.53;38.27;;;6.10;99.90;;;;;;4823365;29;20209;-80
2024/03/07 01:11:44;;;;;;;45.93;38.37;;;6.00;99.90;;;;;;4819741;29;20224;-80
2024/03/07 01:14:11;;;;;;;47.90;40.00;;;5.90;99.90;;;;;;4823892;29;20231;-80
2024/03/07 01:16:38;;;;;;;43.17;36.77;;;5.90;99.90;;;;;;4823647;29;20592;-80
2024/03/07 01:19:05;;;;;;;46.87;39.97;;;5.90;99.90;;;;;;4823376;29;20205;-80
2024/03/07 01:21:33;;;;;;;44.53;38.37;;;5.80;99.90;;;;;;4821883;29;20646;-80
2024/03/07 01:24:02;;;;;;;47.23;39.10;;;5.80;99.90;;;;;;4823406;29;20202;-80
2024/03/07 01:26:29;;;;;;;46.77;39.27;;;5.70;99.90;;;;;;4823236;29;20678;-79
2024/03/07 01:28:58;;;;;;;48.17;39.13;;;5.70;99.90;;;;;;4822301;29;20666;-80
2024/03/07 01:31:25;;;;;;;42.37;37.80;;;5.70;99.90;;;;;;4821924;29;20201;-80
2024/03/07 01:33:52;;;;;;;47.67;39.20;;;5.70;99.90;;;;;;4819203;29;20235;-80
2024/03/07 01:36:21;;;;;;;42.20;37.67;;;5.60;99.90;;;;;;4822091;29;20221;-79
2024/03/07 01:38:48;;;;;;;43.27;38.60;;;5.60;99.90;;;;;;4823119;29;20214;-80
2024/03/07 01:41:16;;;;;;;46.57;39.57;;;5.60;99.90;;;;;;4823006;29;20213;-80
2024/03/07 01:43:43;;;;;;;45.70;39.47;;;5.50;99.90;;;;;;4823162;29;20193;-80
2024/03/07 01:46:11;;;;;;;45.20;37.77;;;5.50;99.90;;;;;;4821616;29;20231;-79
2024/03/07 01:48:40;;;;;;;51.50;39.50;;;5.50;99.90;;;;;;4822278;29;20297;-80
2024/03/07 01:51:07;;;;;;;49.53;39.47;;;5.40;99.90;;;;;;4824023;29;20246;-80
2024/03/07 01:53:35;;;;;;;48.47;40.13;;;5.40;99.90;;;;;;4825267;29;20323;-79
2024/03/07 01:56:04;;;;;;;49.13;38.67;;;5.40;99.90;;;;;;4826286;29;20234;-80
2024/03/07 01:58:33;;;;;;;46.93;38.37;;;5.40;99.90;;;;;;4825558;29;20205;-80
2024/03/07 02:01:00;;;;;;;44.50;37.30;;;5.30;99.90;;;;;;4826289;29;20207;-80
2024/03/07 02:03:27;;;;;;;42.10;36.77;;;5.30;99.90;;;;;;4825526;29;20289;-80
2024/03/07 02:05:54;;;;;;;43.57;37.50;;;5.30;99.90;;;;;;4825879;29;20228;-79
2024/03/07 02:08:21;;;;;;;46.40;37.50;;;5.20;99.90;;;;;;4826117;29;20274;-80
2024/03/07 02:10:48;;;;;;;42.10;36.57;;;5.20;99.90;;;;;;4824717;29;20205;-80
2024/03/07 02:13:15;;;;;;;42.93;38.30;;;5.10;99.90;;;;;;4824473;29;20294;-80
2024/03/07 02:15:43;;;;;;;43.03;37.50;;;5.10;99.90;;;;;;4824992;29;20225;-80
2024/03/07 02:18:11;;;;;;;46.33;39.13;;;5.00;99.90;;;;;;4826083;29;20636;-80
2024/03/07 02:20:37;;;;;;;44.17;39.00;;;5.00;99.90;;;;;;4825981;29;20208;-79
2024/03/07 02:23:06;;;;;;;48.63;40.53;;;4.90;99.90;;;;;;4824613;29;20731;-80
2024/03/07 02:25:37;;;;;;;48.13;39.90;;;4.90;99.90;;;;;;4824818;29;20236;-79
2024/03/07 02:28:04;;;;;;;54.03;41.80;;;4.90;99.90;;;;;;4824784;29;20216;-79
2024/03/07 02:30:32;;;;;;;50.77;42.70;;;4.80;99.90;;;;;;4824759;29;20588;-80
2024/03/07 02:33:06;;;;;;;52.37;43.10;;;4.70;99.90;;;;;;4825233;29;20306;-79
2024/03/07 02:35:33;;;;;;;51.77;42.70;;;4.60;99.90;;;;;;4818732;29;20319;-80
2024/03/07 02:38:00;;;;;;;45.90;39.33;;;4.70;99.90;;;;;;4823936;29;20261;-79
2024/03/07 02:40:28;;;;;;;47.73;40.27;;;4.60;99.90;;;;;;4824267;29;20256;-79
2024/03/07 02:42:55;;;;;;;51.03;40.63;;;4.60;99.90;;;;;;4824762;29;20637;-80
2024/03/07 02:45:22;;;;;;;45.33;38.93;;;4.50;99.90;;;;;;4821321;29;20726;-79
2024/03/07 02:47:49;;;;;;;42.87;38.20;;;4.50;99.90;;;;;;4826055;29;20271;-80
2024/03/07 02:50:16;;;;;;;46.97;39.27;;;4.50;99.90;;;;;;4824604;29;20312;-80
2024/03/07 02:52:43;;;;;;;44.70;39.10;;;4.50;99.90;;;;;;4825176;29;20209;-81
2024/03/07 02:55:10;;;;;;;48.37;40.10;;;4.50;99.90;;;;;;4824320;29;20242;-79
2024/03/07 02:57:39;;;;;;;45.17;38.93;;;4.40;99.90;;;;;;4820209;29;20283;-79
2024/03/07 03:00:19;;;;;;;46.90;39.40;;;4.40;99.90;;;;;;4823684;29;20299;-80
2024/03/07 03:02:46;;;;;;;48.30;39.93;;;4.30;99.90;;;;;;4825429;29;20247;-80
2024/03/07 03:05:15;;;;;;;55.90;44.07;;;4.30;99.90;;;;;;4825127;29;20716;-80
2024/03/07 03:07:42;;;;;;;53.17;44.20;;;4.30;99.90;;;;;;4824936;29;20215;-79
2024/03/07 03:10:10;;;;;;;57.87;45.40;;;4.20;99.90;;;;;;4824036;29;20561;-79
2024/03/07 03:12:39;;;;;;;54.17;43.60;;;4.20;99.90;;;;;;4816461;29;20216;-79
2024/03/07 03:15:09;;;;;;;58.53;45.93;;;4.30;99.90;;;;;;4823797;29;20247;-80
2024/03/07 03:17:36;;;;;;;54.60;45.03;;;4.20;99.90;;;;;;4824085;29;20213;-80
2024/03/07 03:20:09;;;;;;;54.93;43.93;;;4.20;99.90;;;;;;4820943;29;20227;-80
2024/03/07 03:22:36;;;;;;;58.30;46.37;;;4.20;99.90;;;;;;4825033;29;20206;-79
2024/03/07 03:25:04;;;;;;;56.67;46.50;;;4.10;99.90;;;;;;4825018;29;20231;-80
2024/03/07 03:27:30;;;;;;;60.23;46.00;;;4.10;99.90;;;;;;4823846;29;20199;-79
2024/03/07 03:30:00;;;;;;;56.93;45.57;;;4.00;99.90;;;;;;4823418;29;20211;-80
2024/03/07 03:32:27;;;;;;;58.53;46.73;;;4.00;99.90;;;;;;4824729;29;20659;-80
2024/03/07 03:34:53;;;;;;;64.67;49.10;;;4.00;99.90;;;;;;4823317;29;20256;-80
2024/03/07 03:37:21;;;;;;;62.97;49.17;;;4.00;99.90;;;;;;4823148;29;20230;-79
2024/03/07 03:39:49;;;;;;;62.90;49.43;;;4.00;99.90;;;;;;4826939;29;20211;-79
2024/03/07 03:42:17;;;;;;;59.00;49.27;;;3.90;99.90;;;;;;4823093;29;20568;-77
2024/03/07 03:44:43;;;;;;;56.40;47.10;;;3.90;99.90;;;;;;4829811;29;20228;-78
2024/03/07 03:47:11;;;;;;;58.17;47.40;;;4.00;99.90;;;;;;4823168;29;20215;-77
2024/03/07 03:49:38;;;;;;;54.63;45.53;;;4.00;99.90;;;;;;4825232;29;20200;-78
2024/03/07 03:52:05;;;;;;;58.87;47.77;;;4.00;99.90;;;;;;4824264;29;20745;-78
2024/03/07 03:54:32;;;;;;;57.97;47.93;;;4.00;99.90;;;;;;4824446;29;20568;-77
2024/03/07 03:56:59;;;;;;;60.33;47.47;;;4.00;99.90;;;;;;4820047;29;20204;-79
2024/03/07 03:59:27;;;;;;;55.57;46.80;;;4.00;99.90;;;;;;4832590;29;20669;-78
2024/03/07 04:01:54;;;;;;;63.33;47.40;;;4.00;99.90;;;;;;4817163;29;20245;-79
2024/03/07 04:04:22;;;;;;;59.40;47.83;;;4.00;99.90;;;;;;4824139;29;20231;-78
2024/03/07 04:06:49;;;;;;;61.37;46.40;;;3.90;99.90;;;;;;4823746;29;20207;-78
2024/03/07 04:09:16;;;;;;;59.47;47.13;;;3.90;99.90;;;;;;4823157;29;20212;-76
2024/03/07 04:11:45;;;;;;;62.90;48.93;;;3.90;99.90;;;;;;4823913;29;20579;-77
2024/03/07 04:14:12;;;;;;;60.53;49.17;;;3.80;99.90;;;;;;4822244;29;20292;-78
2024/03/07 04:16:39;;;;;;;57.97;47.23;;;3.80;99.90;;;;;;4824444;29;20252;-83
2024/03/07 04:19:09;;;;;;;55.53;46.70;;;3.80;99.90;;;;;;4822591;29;20646;-78
2024/03/07 04:21:37;;;;;;;55.97;46.23;;;3.80;99.90;;;;;;4824141;29;20580;-78
2024/03/07 04:24:04;;;;;;;68.43;51.70;;;3.80;99.90;;;;;;4824361;29;20203;-78
2024/03/07 04:26:31;;;;;;;63.70;49.17;;;3.80;99.90;;;;;;4824289;29;20211;-78
2024/03/07 04:28:58;;;;;;;61.27;46.53;;;3.80;99.90;;;;;;4822922;29;20211;-78
2024/03/07 04:31:25;;;;;;;52.80;43.83;;;3.80;99.90;;;;;;4823326;29;20565;-78
2024/03/07 04:33:51;;;;;;;59.07;47.30;;;3.80;99.90;;;;;;4823127;29;20227;-78
2024/03/07 04:36:21;;;;;;;52.83;43.30;;;3.80;99.90;;;;;;4821277;29;20208;-78
2024/03/07 04:38:49;;;;;;;62.27;49.13;;;3.80;99.90;;;;;;4825219;29;20211;-76
2024/03/07 04:41:16;;;;;;;60.57;46.30;;;3.80;99.90;;;;;;4821376;29;20597;-78
2024/03/07 04:43:43;;;;;;;54.93;44.63;;;3.80;99.90;;;;;;4824091;29;20619;-79
2024/03/07 04:46:10;;;;;;;59.80;48.27;;;3.80;99.90;;;;;;4823319;29;20333;-78
2024/03/07 04:48:37;;;;;;;54.60;44.97;;;3.80;99.90;;;;;;4822629;29;20277;-78
2024/03/07 04:51:04;;;;;;;59.90;47.23;;;3.90;99.90;;;;;;4812783;29;20209;-79
2024/03/07 04:53:31;;;;;;;55.27;45.30;;;3.80;99.90;;;;;;4850804;29;20215;-79
2024/03/07 04:55:59;;;;;;;56.33;45.17;;;3.90;99.90;;;;;;4822180;29;20227;-78
2024/03/07 04:58:26;;;;;;;60.17;46.50;;;3.90;99.90;;;;;;4821854;29;20231;-78
2024/03/07 05:00:53;;;;;;;60.57;49.13;;;3.90;99.90;;;;;;4822396;29;20216;-78
2024/03/07 05:03:20;;;;;;;60.03;47.97;;;3.90;99.90;;;;;;4823364;29;20207;-78
2024/03/07 05:05:47;;;;;;;56.80;46.60;;;3.90;99.90;;;;;;4822969;29;20232;-78
2024/03/07 05:08:13;;;;;;;61.47;45.63;;;3.90;99.90;;;;;;4823334;29;20212;-78
2024/03/07 05:10:41;;;;;;;55.67;45.20;;;3.90;99.90;;;;;;4823177;29;20213;-78
2024/03/07 05:13:09;;;;;;;56.20;47.00;;;3.80;99.90;;;;;;4823366;29;20286;-78
2024/03/07 05:15:36;;;;;;;56.87;46.40;;;3.80;99.90;;;;;;4819648;29;20238;-78
2024/03/07 05:18:03;;;;;;;62.60;48.23;;;3.80;99.90;;;;;;4823526;29;20203;-79
2024/03/07 05:20:31;;;;;;;54.70;46.50;;;3.80;99.90;;;;;;4821161;29;20460;-78
2024/03/07 05:22:58;;;;;;;55.67;45.77;;;3.80;99.90;;;;;;4822408;29;20212;-79
2024/03/07 05:25:25;;;;;;;61.17;47.47;;;3.80;99.90;;;;;;4821764;29;20227;-79
2024/03/07 05:27:53;;;;;;;61.80;48.57;;;3.80;99.90;;;;;;4821611;29;20219;-78
2024/03/07 05:30:23;;;;;;;56.57;46.20;;;3.80;99.90;;;;;;4822010;29;20265;-79
2024/03/07 05:32:50;;;;;;;55.27;46.53;;;3.80;99.90;;;;;;4821698;29;20214;-78
2024/03/07 05:35:17;;;;;;;57.23;45.93;;;3.80;99.90;;;;;;4821313;29;20781;-78
2024/03/07 05:37:46;;;;;;;52.37;43.97;;;3.80;99.90;;;;;;4821573;29;20567;-78
2024/03/07 05:40:14;;;;;;;55.07;46.20;;;3.80;99.90;;;;;;4821490;29;20230;-77
2024/03/07 05:42:41;;;;;;;57.13;46.20;;;3.80;99.90;;;;;;4822446;29;20199;-78
2024/03/07 05:45:08;;;;;;;55.60;44.50;;;3.80;99.90;;;;;;4822845;29;20235;-78
2024/03/07 05:47:37;;;;;;;56.03;45.43;;;3.80;99.90;;;;;;4821869;29;20213;-78
2024/03/07 05:50:07;;;;;;;58.33;46.63;;;3.80;99.90;;;;;;4818390;29;20208;-79
2024/03/07 05:52:34;;;;;;;55.00;45.03;;;3.80;99.90;;;;;;4820242;29;20608;-79
2024/03/07 05:55:01;;;;;;;62.83;47.07;;;3.80;99.90;;;;;;4818244;29;20220;-78
2024/03/07 05:57:28;;;;;;;55.23;45.17;;;3.80;99.90;;;;;;4820051;29;20209;-78
2024/03/07 05:59:56;;;;;;;55.83;46.83;;;3.80;99.90;;;;;;4821154;29;20264;-78
2024/03/07 06:02:23;;;;;;;56.40;46.43;;;3.80;99.90;;;;;;4821310;29;20561;-78
2024/03/07 06:04:51;;;;;;;58.57;47.13;;;3.80;99.90;;;;;;4821296;29;20219;-78
2024/03/07 06:07:18;;;;;;;53.67;44.33;;;3.90;99.90;;;;;;4820954;29;20709;-78
2024/03/07 06:09:45;;;;;;;55.07;45.97;;;3.80;99.90;;;;;;4821561;29;20586;-79
2024/03/07 06:12:12;;;;;;;52.03;43.40;;;3.90;99.90;;;;;;4820481;29;20593;-79
2024/03/07 06:14:39;;;;;;;54.33;43.77;;;3.70;99.90;;;;;;4821858;29;20238;-79
2024/03/07 06:17:05;;;;;;;52.73;43.07;;;3.70;99.90;;;;;;4822608;29;20208;-79
2024/03/07 06:19:33;;;;;;;52.70;44.80;;;3.60;99.90;;;;;;4820949;29;20210;-78
2024/03/07 06:22:06;;;;;;;50.93;42.50;;;3.60;99.90;;;;;;4822321;29;20207;-78
2024/03/07 06:24:33;;;;;;;51.73;43.60;;;3.60;99.90;;;;;;4820374;29;20230;-78
2024/03/07 06:27:03;;;;;;;49.00;42.23;;;3.70;99.90;;;;;;4821633;29;20690;-78
2024/03/07 06:29:30;;;;;;;56.20;44.77;;;3.70;99.90;;;;;;4821270;29;20203;-78
2024/03/07 06:31:58;;;;;;;50.87;43.43;;;3.60;99.90;;;;;;4822351;29;20618;-79
2024/03/07 06:34:25;;;;;;;51.13;43.20;;;3.70;99.90;;;;;;4820642;29;20239;-78
2024/03/07 06:36:52;;;;;;;53.13;43.43;;;3.70;99.90;;;;;;4824648;29;20208;-79
2024/03/07 06:39:21;;;;;;;54.87;44.00;;;3.80;99.90;;;;;;4824386;29;20247;-77
2024/03/07 06:41:48;;;;;;;53.27;43.70;;;3.80;99.90;;;;;;4825772;29;20231;-78
2024/03/07 06:44:15;;;;;;;50.13;42.57;;;3.80;99.90;;;;;;4825550;29;20276;-78
2024/03/07 06:46:42;;;;;;;52.73;43.50;;;3.70;99.90;;;;;;4826742;29;20210;-78
2024/03/07 06:49:10;;;;;;;46.73;40.70;;;3.70;99.90;;;;;;4824439;29;20215;-78
2024/03/07 06:51:37;;;;;;;48.50;41.73;;;3.70;99.90;;;;;;4823153;29;20204;-79
2024/03/07 06:54:05;;;;;;;50.03;42.40;;;3.70;99.90;;;;;;4824498;29;20223;-78
2024/03/07 06:56:33;;;;;;;52.57;43.43;;;3.70;99.90;;;;;;4823870;29;20214;-79
2024/03/07 06:59:04;;;;;;;48.53;41.03;;;3.70;99.90;;;;;;4823814;29;20260;-78
2024/03/07 07:01:31;;;;;;;54.27;43.57;;;3.80;99.90;;;;;;4823613;29;20215;-79
2024/03/07 07:03:58;;;;;;;48.17;41.33;;;3.80;99.90;;;;;;4823920;29;20238;-78
2024/03/07 07:06:27;;;;;;;53.27;43.03;;;3.90;99.90;;;;;;4824710;29;20242;-78
2024/03/07 07:08:54;;;;;;;49.17;41.73;;;3.90;99.90;;;;;;4823747;29;20211;-78
2024/03/07 07:11:21;;;;;;;50.07;41.90;;;3.80;99.90;;;;;;4825010;29;20289;-79
2024/03/07 07:13:49;;;;;;;51.23;41.47;;;3.80;99.90;;;;;;4823614;29;20684;-79
2024/03/07 07:16:18;;;;;;;48.80;40.73;;;3.90;99.90;;;;;;4825073;29;20203;-78
2024/03/07 07:18:45;;;;;;;49.07;39.63;;;4.00;99.90;;;;;;4823656;29;20299;-78
2024/03/07 07:21:15;;;;;;;50.10;41.40;;;4.10;99.90;;;;;;4824472;29;20209;-78
2024/03/07 07:23:42;;;;;;;52.90;42.20;;;4.00;99.90;;;;;;4823726;29;20214;-78
2024/03/07 07:26:09;;;;;;;50.80;42.40;;;3.90;99.90;;;;;;4824884;29;20230;-78
2024/03/07 07:28:36;;;;;;;50.70;41.77;;;3.90;99.90;;;;;;4823305;29;20214;-78
2024/03/07 07:31:05;;;;;;;49.30;41.47;;;3.90;99.90;;;;;;4817776;29;20218;-78
2024/03/07 07:33:32;;;;;;;53.17;42.50;;;3.80;99.90;;;;;;4823446;29;20291;-78
2024/03/07 07:35:59;;;;;;;49.77;42.47;;;3.90;99.90;;;;;;4824296;29;20259;-78
2024/03/07 07:38:26;;;;;;;46.53;40.83;;;3.90;99.90;;;;;;4823262;29;20207;-79
2024/03/07 07:40:53;;;;;;;50.20;42.03;;;3.90;99.90;;;;;;4824235;29;20207;-79
2024/03/07 07:43:20;;;;;;;45.40;39.37;;;3.90;99.90;;;;;;4823677;29;20208;-79
2024/03/07 07:45:46;;;;;;;45.00;39.20;;;4.00;99.90;;;;;;4823048;29;20302;-78
2024/03/07 07:48:15;;;;;;;48.63;41.13;;;4.00;99.90;;;;;;4824368;29;20647;-78
2024/03/07 07:50:42;;;;;;;47.30;39.70;;;4.00;99.90;;;;;;4822928;29;20215;-77
2024/03/07 07:53:10;;;;;;;48.20;39.30;;;4.00;99.90;;;;;;4824509;29;20207;-77
2024/03/07 07:55:38;;;;;;;48.57;40.10;;;3.90;99.90;;;;;;4822918;29;20241;-78
2024/03/07 07:58:05;;;;;;;44.50;38.40;;;4.00;99.90;;;;;;4823210;29;20712;-78
2024/03/07 08:00:32;;;;;;;45.83;38.50;;;4.10;99.90;;;;;;4822867;29;20203;-78
2024/03/07 08:03:00;;;;;;;44.03;38.20;;;4.10;99.90;;;;;;4823191;29;20212;-78
2024/03/07 08:05:29;;;;;;;49.87;41.13;;;4.10;99.90;;;;;;4824150;29;20704;-77
2024/03/07 08:07:58;;;;;;;43.03;38.17;;;4.10;99.90;;;;;;4823292;29;20250;-78
2024/03/07 08:10:28;;;;;;;47.13;40.83;;;4.10;99.90;;;;;;4819958;29;20636;-78
2024/03/07 08:12:55;;;;;;;45.63;38.33;;;4.10;99.90;;;;;;4823228;29;20608;-78
2024/03/07 08:15:23;;;;;;;47.10;38.93;;;4.10;99.90;;;;;;4824095;29;20224;-78
2024/03/07 08:17:51;;;;;;;42.20;36.60;;;4.00;99.90;;;;;;4823414;29;20299;-78
2024/03/07 08:20:20;;;;;;;45.03;38.97;;;4.10;99.90;;;;;;4822717;29;20641;-78
2024/03/07 08:22:52;;;;;;;48.00;38.23;;;4.10;99.90;;;;;;4823209;29;20562;-78
2024/03/07 08:25:20;;;;;;;49.10;38.13;;;4.10;99.90;;;;;;4823902;29;20227;-78
2024/03/07 08:27:49;;;;;;;47.80;39.83;;;4.20;99.90;;;;;;4822761;29;20260;-78
2024/03/07 08:30:16;;;;;;;45.93;38.03;;;4.10;99.90;;;;;;4823772;29;20214;-76
2024/03/07 08:32:50;;;;;;;48.17;40.73;;;4.10;99.90;;;;;;4821208;29;20208;-78
2024/03/07 08:35:17;;;;;;;45.97;40.90;;;4.00;99.90;;;;;;4822399;29;20618;-78
2024/03/07 08:37:45;;;;;;;47.37;39.80;;;4.00;99.90;;;;;;4825144;29;20220;-79
2024/03/07 08:40:19;;;;;;;45.87;39.40;;;4.00;99.90;;;;;;4823673;29;20210;-78
2024/03/07 08:42:47;;;;;;;53.17;41.17;;;4.00;99.90;;;;;;4821326;29;20208;-77
2024/03/07 08:45:17;;;;;;;52.90;41.93;;;4.00;99.90;;;;;;4818715;29;20610;-78
2024/03/07 08:47:44;;;;;;;47.67;39.50;;;4.10;99.90;;;;;;4820550;29;20211;-78
2024/03/07 08:50:12;;;;;;;51.70;40.47;;;4.10;99.90;;;;;;4822099;29;20608;-78
2024/03/07 08:52:40;;;;;;;52.50;41.03;;;4.10;99.90;;;;;;4823415;29;20297;-77
2024/03/07 08:55:10;;;;;;;51.53;41.20;;;4.10;99.90;;;;;;4814229;29;20692;-77
2024/03/07 08:57:38;;;;;;;51.27;42.10;;;4.10;99.90;;;;;;4820002;29;20303;-78
2024/03/07 09:00:09;;;;;;;48.33;39.60;;;4.20;99.90;;;;;;4818981;29;20204;-77
2024/03/07 09:02:36;;;;;;;53.60;42.23;;;4.30;99.90;;;;;;4820635;29;20219;-78
2024/03/07 09:05:03;;;;;;;52.63;42.90;;;4.20;99.90;;;;;;4823674;29;20215;-77
2024/03/07 09:07:30;;;;;;;51.37;41.70;;;4.30;99.90;;;;;;4822466;29;20238;-78
2024/03/07 09:09:58;;;;;;;51.40;40.93;;;4.30;99.90;;;;;;4822253;29;20213;-78
2024/03/07 09:12:25;;;;;;;54.90;42.17;;;4.40;99.90;;;;;;4823372;29;20211;-77
2024/03/07 09:14:53;;;;;;;59.27;44.23;;;4.40;99.90;;;;;;4821575;29;20334;-78
2024/03/07 09:17:21;;;;;;;56.07;43.17;;;4.50;99.90;;;;;;4822184;29;20618;-78
2024/03/07 09:19:48;;;;;;;52.47;43.43;;;4.60;99.90;;;;;;4820873;29;20231;-78
2024/03/07 09:22:15;;;;;;;50.40;42.30;;;4.50;99.90;;;;;;4823153;29;20204;-77
2024/03/07 09:24:41;;;;;;;55.93;43.90;;;4.50;99.90;;;;;;4822634;29;20612;-78
2024/03/07 09:27:08;;;;;;;52.07;41.73;;;4.60;99.90;;;;;;4821850;29;20680;-78
2024/03/07 09:29:35;;;;;;;51.90;42.03;;;4.60;99.90;;;;;;4821761;29;20711;-77
2024/03/07 09:32:04;;;;;;;52.10;42.30;;;4.70;99.90;;;;;;4823060;29;20231;-78
2024/03/07 09:34:31;;;;;;;48.40;39.07;;;4.70;99.90;;;;;;4821893;29;20223;-78
2024/03/07 09:36:58;;;;;;;48.20;37.97;;;4.80;99.90;;;;;;4823101;29;20230;-80
2024/03/07 09:39:26;;;;;;;46.73;40.50;;;5.00;99.90;;;;;;4819160;29;20742;-79
2024/03/07 09:41:54;;;;;;;52.13;39.40;;;5.10;99.90;;;;;;4820852;29;20285;-78
2024/03/07 09:44:25;;;;;;;49.90;41.07;;;5.20;99.90;;;;;;4822673;29;20230;-78
2024/03/07 09:46:55;;;;;;;47.07;40.43;;;5.20;99.90;;;;;;4822828;29;20256;-78
2024/03/07 09:49:24;;;;;;;49.13;41.10;;;5.30;99.90;;;;;;4822796;29;20709;-79
2024/03/07 09:51:54;;;;;;;48.10;41.23;;;5.30;99.90;;;;;;4821747;29;20259;-80
2024/03/07 09:54:23;;;;;;;42.50;37.20;;;5.40;99.90;;;;;;4820299;29;20651;-78
2024/03/07 09:56:50;;;;;;;46.30;40.30;;;5.50;99.90;;;;;;4821123;29;20262;-79
2024/03/07 09:59:20;;;;;;;44.00;39.00;;;5.60;99.90;;;;;;4822571;29;20557;-79
2024/03/07 10:01:50;;;;;;;49.87;40.70;;;5.70;99.90;;;;;;4821409;29;20304;-79
2024/03/07 10:04:22;;;;;;;46.27;39.30;;;5.70;99.90;;;;;;4821202;29;20266;-79
2024/03/07 10:06:52;;;;;;;45.80;39.00;;;5.90;99.90;;;;;;4822243;29;20210;-79
2024/03/07 10:09:22;;;;;;;45.23;39.00;;;5.90;99.90;;;;;;4823091;29;20214;-79
2024/03/07 10:11:57;;;;;;;51.47;39.13;;;5.90;99.90;;;;;;4822298;29;20212;-78
2024/03/07 10:14:23;;;;;;;47.10;39.77;;;5.80;99.90;;;;;;4824696;29;20229;-79
2024/03/07 10:16:50;;;;;;;47.37;39.97;;;5.80;99.90;;;;;;4824420;29;20294;-80
2024/03/07 10:19:17;;;;;;;43.00;38.27;;;5.70;99.90;;;;;;4826253;29;20203;-80
2024/03/07 10:21:44;;;;;;;45.13;38.67;;;5.80;99.90;;;;;;4824922;29;20230;-80
2024/03/07 10:24:12;;;;;;;45.47;40.37;;;5.90;99.90;;;;;;4824818;29;20245;-80
2024/03/07 10:26:40;;;;;;;44.23;39.00;;;6.00;99.90;;;;;;4822696;29;20648;-80
2024/03/07 10:29:07;;;;;;;42.70;38.00;;;6.10;99.90;;;;;;4825542;29;20210;-81
2024/03/07 10:31:38;;;;;;;41.90;37.30;;;6.20;99.90;;;;;;4821379;29;20730;-84
2024/03/07 10:34:05;;;;;;;44.17;37.30;;;6.30;99.90;;;;;;4824079;29;20211;-80
2024/03/07 10:36:33;;;;;;;42.17;35.80;;;6.50;99.90;;;;;;4823884;29;20799;-79
2024/03/07 10:39:11;;;;;;;41.43;36.67;;;6.60;99.90;;;;;;4824314;29;20685;-80
2024/03/07 10:41:45;;;;;;;46.57;40.13;;;6.70;99.90;;;;;;4823996;29;20226;-80
2024/03/07 10:44:19;;;;;;;43.30;37.97;;;6.80;99.90;;;;;;4823896;29;20669;-80
2024/03/07 10:46:52;;;;;;;42.70;37.00;;;6.90;99.90;;;;;;4825352;29;20200;-80
2024/03/07 10:49:23;;;;;;;45.00;38.37;;;7.00;99.90;;;;;;4824214;29;20211;-80
2024/03/07 10:52:00;;;;;;;45.03;37.87;;;7.00;99.90;;;;;;4821950;29;20632;-80
2024/03/07 10:54:38;;;;;;;40.77;35.67;;;7.10;99.90;;;;;;4825349;29;20649;-80
2024/03/07 10:57:16;;;;;;;41.03;35.50;;;7.10;99.90;;;;;;4825100;29;20637;-79
2024/03/07 10:59:50;;;;;;;41.50;34.53;;;7.20;99.90;;;;;;4823804;29;20207;-79
2024/03/07 11:02:27;;;;;;;43.63;35.50;;;7.30;99.90;;;;;;4823859;29;20260;-80
2024/03/07 11:04:54;;;;;;;44.10;37.87;;;7.20;99.90;;;;;;4825064;29;20719;-80
2024/03/07 11:07:23;;;;;;;45.30;35.53;;;7.10;99.90;;;;;;4824212;29;20277;-80
2024/03/07 11:09:52;;;;;;;39.97;33.67;;;7.00;99.90;;;;;;4823852;29;20215;-81
2024/03/07 11:12:22;;;;;;;44.80;38.03;;;7.00;99.90;;;;;;4824786;29;20278;-80
2024/03/07 11:14:51;;;;;;;41.37;35.67;;;7.00;99.90;;;;;;4823502;29;20235;-81
2024/03/07 11:17:19;;;;;;;41.77;34.67;;;7.00;99.90;;;;;;4823838;29;20227;-80
2024/03/07 11:19:47;;;;;;;39.73;33.23;;;6.90;99.90;;;;;;4824053;29;20302;-79
2024/03/07 11:22:29;;;;;;;40.43;33.97;;;7.00;99.90;;;;;;4820749;29;20218;-81
2024/03/07 11:25:06;;;;;;;38.37;34.30;;;7.10;99.90;;;;;;4823271;29;20731;-81
2024/03/07 11:27:37;;;;;;;39.43;34.30;;;7.20;99.90;;;;;;4820968;29;20214;-80
2024/03/07 11:30:11;;;;;;;40.93;35.07;;;7.30;99.90;;;;;;4824157;29;20199;-81
2024/03/07 11:32:44;;;;;;;36.47;32.43;;;7.50;99.90;;;;;;4823954;29;20211;-81
2024/03/07 11:35:14;;;;;;;40.13;34.53;;;7.60;99.90;;;;;;4810279;29;20812;-79
2024/03/07 11:37:46;;;;;;;37.97;33.87;;;7.70;99.90;;;;;;4825101;29;20206;-79
2024/03/07 11:40:18;;;;;;;35.83;31.90;;;7.80;99.90;;;;;;4823730;29;20207;-79
2024/03/07 11:42:48;;;;;;;36.87;32.80;;;7.90;99.90;;;;;;4824322;29;20223;-79
2024/03/07 11:45:24;;;;;;;35.33;31.03;;;8.00;99.90;;;;;;4824181;29;20253;-79
2024/03/07 11:47:57;;;;;;;36.67;31.03;;;8.20;99.90;;;;;;4824496;29;20602;-80
2024/03/07 11:50:25;;;;;;;37.87;32.97;;;8.40;99.90;;;;;;4823598;29;20302;-80
2024/03/07 11:52:54;;;;;;;36.60;32.63;;;8.40;99.90;;;;;;4821902;29;20604;-81
2024/03/07 11:55:21;;;;;;;35.13;31.33;;;8.40;99.90;;;;;;4820185;29;20223;-80
2024/03/07 11:57:50;;;;;;;36.50;32.00;;;8.50;99.90;;;;;;4822517;29;20208;-80
2024/03/07 12:00:19;;;;;;;33.67;29.60;;;8.50;99.90;;;;;;4824903;29;20664;-81
2024/03/07 12:02:48;;;;;;;35.43;28.73;;;8.40;99.90;;;;;;4825310;29;20587;-81
2024/03/07 12:05:15;;;;;;;33.17;29.57;;;8.40;99.90;;;;;;4826000;29;20224;-81
2024/03/07 12:07:42;;;;;;;34.27;30.57;;;8.40;99.90;;;;;;4825006;29;20683;-81
2024/03/07 12:10:10;;;;;;;33.77;27.17;;;8.40;99.90;;;;;;4825666;29;20597;-80
2024/03/07 12:12:38;;;;;;;38.23;31.73;;;8.40;99.90;;;;;;4823727;29;20294;-80
2024/03/07 12:15:19;;;;;;;39.63;34.40;;;8.10;99.90;;;;;;4822896;29;20227;-81
2024/03/07 12:17:49;;;;;;;37.37;33.37;;;8.00;99.90;;;;;;4823793;29;20227;-81
2024/03/07 12:20:27;;;;;;;37.97;33.63;;;7.90;99.90;;;;;;4824408;29;20223;-81
2024/03/07 12:22:57;;;;;;;40.57;34.77;;;8.00;99.90;;;;;;4824219;29;20309;-80
2024/03/07 12:25:25;;;;;;;34.10;30.47;;;8.10;99.90;;;;;;4827568;29;20655;-77
2024/03/07 12:28:03;;;;;;;37.63;33.40;;;8.30;99.90;;;;;;4826248;29;20232;-77
2024/03/07 12:30:34;;;;;;;39.40;33.27;;;8.30;99.90;;;;;;4823798;29;20199;-78
2024/03/07 12:33:04;;;;;;;38.53;32.70;;;8.30;99.90;;;;;;4830690;29;20220;-78
2024/03/07 12:35:31;;;;;;;39.10;32.47;;;8.20;99.90;;;;;;4830627;29;20235;-77
2024/03/07 12:37:59;;;;;;;35.10;31.27;;;8.30;99.90;;;;;;4831408;29;20245;-78
2024/03/07 12:40:29;;;;;;;34.33;30.73;;;8.40;99.90;;;;;;4831489;29;20260;-77